createdAt,value
2023-04-20T00:00:32.384Z,1020.31
2023-04-20T00:01:32.407Z,1020.28
2023-04-20T00:02:32.498Z,1020.29
2023-04-20T00:03:32.494Z,1020.29
2023-04-20T00:04:32.368Z,1020.23
2023-04-20T00:05:32.456Z,1020.20
2023-04-20T00:06:32.315Z,1020.16
2023-04-20T00:07:32.334Z,1020.16
2023-04-20T00:08:32.340Z,1020.16
2023-04-20T00:09:32.263Z,1020.10
2023-04-20T00:10:32.259Z,1020.06
2023-04-20T00:11:32.331Z,1020.08
2023-04-20T00:12:32.243Z,1020.04
2023-04-20T00:13:32.256Z,1020.03
2023-04-20T00:14:32.227Z,1020.02
2023-04-20T00:15:32.227Z,1019.98
2023-04-20T00:16:32.218Z,1019.98
2023-04-20T00:17:32.219Z,1019.96
2023-04-20T00:18:32.189Z,1019.91
2023-04-20T00:19:32.220Z,1019.90
2023-04-20T00:20:32.153Z,1019.90
2023-04-20T00:21:32.152Z,1019.90
2023-04-20T00:22:32.150Z,1019.88
2023-04-20T00:23:32.101Z,1019.86
2023-04-20T00:24:32.145Z,1019.85
2023-04-20T00:25:32.124Z,1019.86
2023-04-20T00:26:32.116Z,1019.87
2023-04-20T00:27:32.073Z,1019.84
2023-04-20T00:28:32.054Z,1019.83
2023-04-20T00:29:32.020Z,1019.78
2023-04-20T00:30:32.005Z,1019.82
2023-04-20T00:31:32.053Z,1019.75
2023-04-20T00:32:53.036Z,1019.73
2023-04-20T00:33:31.990Z,1019.73
2023-04-20T00:34:31.964Z,1019.69
2023-04-20T00:35:31.981Z,1019.65
2023-04-20T00:36:31.943Z,1019.63
2023-04-20T00:37:31.928Z,1019.59
2023-04-20T00:38:31.924Z,1019.59
2023-04-20T00:39:31.974Z,1019.50
2023-04-20T00:40:31.898Z,1019.54
2023-04-20T00:41:31.870Z,1019.56
2023-04-20T00:42:31.895Z,1019.52
2023-04-20T00:43:31.852Z,1019.51
2023-04-20T00:44:31.834Z,1019.50
2023-04-20T00:45:31.869Z,1019.53
2023-04-20T00:46:31.841Z,1019.53
2023-04-20T00:47:39.626Z,1019.53
2023-04-20T00:48:31.793Z,1019.51
2023-04-20T00:49:31.790Z,1019.53
2023-04-20T00:50:31.776Z,1019.47
2023-04-20T00:51:31.779Z,1019.49
2023-04-20T00:52:31.789Z,1019.51
2023-04-20T00:53:31.752Z,1019.48
2023-04-20T00:54:31.724Z,1019.41
2023-04-20T00:55:31.685Z,1019.39
2023-04-20T00:56:31.688Z,1019.37
2023-04-20T00:57:31.659Z,1019.31
2023-04-20T00:58:31.766Z,1019.31
2023-04-20T00:59:31.703Z,1019.28
2023-04-20T01:00:31.648Z,1019.26
2023-04-20T01:01:31.640Z,1019.23
2023-04-20T01:02:31.684Z,1019.21
2023-04-20T01:03:31.815Z,1019.18
2023-04-20T01:04:31.721Z,1019.17
2023-04-20T01:05:36.850Z,1019.14
2023-04-20T01:06:31.605Z,1019.17
2023-04-20T01:07:31.543Z,1019.14
2023-04-20T01:08:31.540Z,1019.14
2023-04-20T01:09:31.521Z,1019.15
2023-04-20T01:10:31.622Z,1019.13
2023-04-20T01:11:31.530Z,1019.04
2023-04-20T01:12:31.492Z,1019.06
2023-04-20T01:13:31.602Z,1019.05
2023-04-20T01:14:31.476Z,1019.05
2023-04-20T01:15:31.742Z,1019.04
2023-04-20T01:16:31.464Z,1019.04
2023-04-20T01:17:31.483Z,1019.01
2023-04-20T01:18:31.393Z,1019.01
2023-04-20T01:19:31.399Z,1019.02
2023-04-20T01:20:31.496Z,1019.00
2023-04-20T01:21:31.450Z,1018.98
2023-04-20T01:22:31.360Z,1018.96
2023-04-20T01:23:31.362Z,1018.93
2023-04-20T01:24:31.468Z,1018.91
2023-04-20T01:25:31.361Z,1018.91
2023-04-20T01:26:31.450Z,1018.85
2023-04-20T01:27:31.273Z,1018.87
2023-04-20T01:28:31.470Z,1018.85
2023-04-20T01:29:31.293Z,1018.82
2023-04-20T01:30:31.317Z,1018.86
2023-04-20T01:31:31.293Z,1018.84
2023-04-20T01:32:31.288Z,1018.88
2023-04-20T01:33:31.229Z,1018.84
2023-04-20T01:34:31.229Z,1018.83
2023-04-20T01:35:31.235Z,1018.88
2023-04-20T01:36:31.202Z,1018.88
2023-04-20T01:37:31.219Z,1018.84
2023-04-20T01:38:31.316Z,1018.89
2023-04-20T01:39:31.249Z,1018.86
2023-04-20T01:40:31.168Z,1018.90
2023-04-20T01:41:31.109Z,1018.81
2023-04-20T01:42:31.094Z,1018.75
2023-04-20T01:43:31.131Z,1018.77
2023-04-20T01:44:31.090Z,1018.73
2023-04-20T01:45:31.070Z,1018.76
2023-04-20T01:46:31.158Z,1018.73
2023-04-20T01:47:31.060Z,1018.66
2023-04-20T01:48:31.064Z,1018.63
2023-04-20T01:49:31.062Z,1018.64
2023-04-20T01:50:31.007Z,1018.60
2023-04-20T01:51:31.024Z,1018.58
2023-04-20T01:52:31.013Z,1018.57
2023-04-20T01:53:30.974Z,1018.53
2023-04-20T01:54:30.982Z,1018.52
2023-04-20T01:55:30.979Z,1018.53
2023-04-20T01:56:30.947Z,1018.47
2023-04-20T01:57:30.920Z,1018.52
2023-04-20T01:58:30.964Z,1018.53
2023-04-20T01:59:30.895Z,1018.51
2023-04-20T02:00:30.883Z,1018.49
2023-04-20T02:01:30.973Z,1018.49
2023-04-20T02:02:30.983Z,1018.47
2023-04-20T02:03:31.092Z,1018.48
2023-04-20T02:04:30.876Z,1018.49
2023-04-20T02:05:30.884Z,1018.49
2023-04-20T02:06:30.849Z,1018.46
2023-04-20T02:07:30.808Z,1018.42
2023-04-20T02:08:31.428Z,1018.37
2023-04-20T02:09:30.806Z,1018.37
2023-04-20T02:10:30.800Z,1018.35
2023-04-20T02:11:30.803Z,1018.33
2023-04-20T02:12:30.759Z,1018.36
2023-04-20T02:13:30.762Z,1018.31
2023-04-20T02:14:30.693Z,1018.34
2023-04-20T02:15:30.736Z,1018.29
2023-04-20T02:16:31.388Z,1018.33
2023-04-20T02:17:30.687Z,1018.29
2023-04-20T02:18:30.674Z,1018.20
2023-04-20T02:19:30.681Z,1018.25
2023-04-20T02:20:30.753Z,1018.22
2023-04-20T02:21:30.642Z,1018.21
2023-04-20T02:22:30.661Z,1018.24
2023-04-20T02:23:30.609Z,1018.22
2023-04-20T02:24:30.606Z,1018.15
2023-04-20T02:25:30.571Z,1018.08
2023-04-20T02:26:30.560Z,1018.17
2023-04-20T02:27:30.638Z,1018.16
2023-04-20T02:28:30.559Z,1018.06
2023-04-20T02:29:30.557Z,1017.99
2023-04-20T02:30:30.548Z,1018.08
2023-04-20T02:31:30.671Z,1018.04
2023-04-20T02:32:30.524Z,1018.11
2023-04-20T02:33:30.479Z,1018.13
2023-04-20T02:34:30.517Z,1018.11
2023-04-20T02:35:30.505Z,1018.10
2023-04-20T02:36:30.439Z,1018.09
2023-04-20T02:37:30.441Z,1018.03
2023-04-20T02:38:30.547Z,1018.01
2023-04-20T02:39:30.432Z,1018.05
2023-04-20T02:40:30.414Z,1018.05
2023-04-20T02:41:30.476Z,1018.03
2023-04-20T02:42:30.370Z,1018.04
2023-04-20T02:43:30.419Z,1018.02
2023-04-20T02:44:30.484Z,1018.01
2023-04-20T02:45:30.325Z,1017.98
2023-04-20T02:46:30.435Z,1017.99
2023-04-20T02:47:30.377Z,1017.97
2023-04-20T02:48:30.350Z,1017.95
2023-04-20T02:49:30.275Z,1017.98
2023-04-20T02:50:30.245Z,1017.96
2023-04-20T02:51:30.254Z,1017.92
2023-04-20T02:52:30.247Z,1017.94
2023-04-20T02:53:30.242Z,1017.90
2023-04-20T02:54:30.260Z,1017.92
2023-04-20T02:55:30.194Z,1017.91
2023-04-20T02:56:30.208Z,1017.90
2023-04-20T02:57:30.160Z,1017.89
2023-04-20T02:58:30.253Z,1017.89
2023-04-20T02:59:30.156Z,1017.88
2023-04-20T03:00:30.144Z,1017.92
2023-04-20T03:01:30.201Z,1017.88
2023-04-20T03:02:30.199Z,1017.86
2023-04-20T03:03:30.340Z,1017.86
2023-04-20T03:04:30.271Z,1017.81
2023-04-20T03:05:30.080Z,1017.80
2023-04-20T03:06:30.123Z,1017.87
2023-04-20T03:07:30.045Z,1017.88
2023-04-20T03:08:30.066Z,1017.81
2023-04-20T03:09:30.046Z,1017.87
2023-04-20T03:10:30.176Z,1017.86
2023-04-20T03:11:30.001Z,1017.85
2023-04-20T03:12:29.985Z,1017.88
2023-04-20T03:13:30.033Z,1017.84
2023-04-20T03:14:29.962Z,1017.83
2023-04-20T03:15:29.980Z,1017.78
2023-04-20T03:16:30.067Z,1017.82
2023-04-20T03:17:29.933Z,1017.77
2023-04-20T03:18:29.969Z,1017.79
2023-04-20T03:19:29.900Z,1017.82
2023-04-20T03:20:29.877Z,1017.77
2023-04-20T03:21:29.871Z,1017.76
2023-04-20T03:22:29.960Z,1017.73
2023-04-20T03:23:29.894Z,1017.76
2023-04-20T03:24:29.890Z,1017.75
2023-04-20T03:25:29.810Z,1017.73
2023-04-20T03:26:29.942Z,1017.69
2023-04-20T03:27:29.831Z,1017.70
2023-04-20T03:28:29.829Z,1017.68
2023-04-20T03:29:29.759Z,1017.64
2023-04-20T03:30:29.882Z,1017.64
2023-04-20T03:31:29.789Z,1017.60
2023-04-20T03:32:32.089Z,1017.62
2023-04-20T03:33:29.797Z,1017.60
2023-04-20T03:34:29.739Z,1017.59
2023-04-20T03:35:29.730Z,1017.56
2023-04-20T03:36:29.732Z,1017.59
2023-04-20T03:37:29.729Z,1017.58
2023-04-20T03:38:29.675Z,1017.61
2023-04-20T03:39:29.679Z,1017.63
2023-04-20T03:40:29.676Z,1017.60
2023-04-20T03:41:29.690Z,1017.66
2023-04-20T03:42:29.623Z,1017.65
2023-04-20T03:43:29.577Z,1017.58
2023-04-20T03:44:29.634Z,1017.62
2023-04-20T03:45:29.627Z,1017.59
2023-04-20T03:46:29.831Z,1017.58
2023-04-20T03:47:29.631Z,1017.57
2023-04-20T03:48:29.655Z,1017.56
2023-04-20T03:49:29.553Z,1017.51
2023-04-20T03:50:29.567Z,1017.51
2023-04-20T03:51:29.491Z,1017.52
2023-04-20T03:52:29.523Z,1017.48
2023-04-20T03:53:29.563Z,1017.50
2023-04-20T03:54:29.664Z,1017.51
2023-04-20T03:55:29.460Z,1017.50
2023-04-20T03:56:29.511Z,1017.48
2023-04-20T03:57:29.474Z,1017.50
2023-04-20T03:58:29.470Z,1017.55
2023-04-20T03:59:29.389Z,1017.56
2023-04-20T04:00:29.476Z,1017.52
2023-04-20T04:01:29.448Z,1017.50
2023-04-20T04:02:29.552Z,1017.48
2023-04-20T04:03:29.679Z,1017.46
2023-04-20T04:04:29.741Z,1017.45
2023-04-20T04:05:29.523Z,1017.46
2023-04-20T04:06:29.332Z,1017.43
2023-04-20T04:07:29.317Z,1017.43
2023-04-20T04:08:29.316Z,1017.41
2023-04-20T04:09:29.315Z,1017.42
2023-04-20T04:10:29.433Z,1017.38
2023-04-20T04:11:29.260Z,1017.36
2023-04-20T04:12:29.261Z,1017.36
2023-04-20T04:13:29.242Z,1017.30
2023-04-20T04:14:29.281Z,1017.25
2023-04-20T04:15:29.223Z,1017.30
2023-04-20T04:16:29.256Z,1017.27
2023-04-20T04:17:30.249Z,1017.25
2023-04-20T04:18:29.245Z,1017.25
2023-04-20T04:19:29.143Z,1017.29
2023-04-20T04:20:29.171Z,1017.24
2023-04-20T04:21:29.134Z,1017.21
2023-04-20T04:22:30.561Z,1017.21
2023-04-20T04:23:29.140Z,1017.22
2023-04-20T04:24:31.066Z,1017.26
2023-04-20T04:25:29.162Z,1017.23
2023-04-20T04:26:29.153Z,1017.24
2023-04-20T04:27:32.324Z,1017.21
2023-04-20T04:28:29.073Z,1017.19
2023-04-20T04:29:29.223Z,1017.13
2023-04-20T04:30:29.016Z,1017.13
2023-04-20T04:31:29.133Z,1017.14
2023-04-20T04:32:29.163Z,1017.18
2023-04-20T04:33:29.068Z,1017.18
2023-04-20T04:34:29.091Z,1017.18
2023-04-20T04:35:29.659Z,1017.18
2023-04-20T04:36:29.639Z,1017.19
2023-04-20T04:37:29.048Z,1017.15
2023-04-20T04:38:29.038Z,1017.15
2023-04-20T04:39:28.983Z,1017.18
2023-04-20T04:40:28.932Z,1017.20
2023-04-20T04:41:29.276Z,1017.19
2023-04-20T04:42:29.023Z,1017.17
2023-04-20T04:43:28.989Z,1017.15
2023-04-20T04:44:30.349Z,1017.17
2023-04-20T04:45:28.857Z,1017.16
2023-04-20T04:46:28.969Z,1017.18
2023-04-20T04:47:30.240Z,1017.15
2023-04-20T04:48:28.879Z,1017.15
2023-04-20T04:49:28.786Z,1017.14
2023-04-20T04:50:28.790Z,1017.14
2023-04-20T04:51:29.047Z,1017.13
2023-04-20T04:52:28.762Z,1017.20
2023-04-20T04:53:29.516Z,1017.19
2023-04-20T04:54:28.775Z,1017.17
2023-04-20T04:55:28.765Z,1017.15
2023-04-20T04:56:28.717Z,1017.13
2023-04-20T04:57:28.785Z,1017.18
2023-04-20T04:58:28.676Z,1017.14
2023-04-20T04:59:28.702Z,1017.16
2023-04-20T05:00:28.785Z,1017.15
2023-04-20T05:01:28.682Z,1017.11
2023-04-20T05:02:28.807Z,1017.16
2023-04-20T05:03:28.730Z,1017.13
2023-04-20T05:04:28.807Z,1017.19
2023-04-20T05:05:28.638Z,1017.18
2023-04-20T05:06:28.638Z,1017.16
2023-04-20T05:07:28.587Z,1017.15
2023-04-20T05:08:28.554Z,1017.18
2023-04-20T05:09:28.599Z,1017.18
2023-04-20T05:10:28.886Z,1017.26
2023-04-20T05:11:28.498Z,1017.15
2023-04-20T05:12:28.552Z,1017.22
2023-04-20T05:13:29.157Z,1017.22
2023-04-20T05:14:28.662Z,1017.26
2023-04-20T05:15:28.628Z,1017.24
2023-04-20T05:16:28.654Z,1017.25
2023-04-20T05:17:28.584Z,1017.24
2023-04-20T05:18:28.414Z,1017.31
2023-04-20T05:19:28.486Z,1017.27
2023-04-20T05:20:28.408Z,1017.27
2023-04-20T05:21:28.417Z,1017.25
2023-04-20T05:22:28.396Z,1017.28
2023-04-20T05:23:28.381Z,1017.32
2023-04-20T05:24:28.351Z,1017.34
2023-04-20T05:25:28.361Z,1017.26
2023-04-20T05:26:28.331Z,1017.29
2023-04-20T05:27:28.362Z,1017.27
2023-04-20T05:28:28.326Z,1017.35
2023-04-20T05:29:28.350Z,1017.26
2023-04-20T05:30:28.487Z,1017.32
2023-04-20T05:31:28.318Z,1017.22
2023-04-20T05:32:28.306Z,1017.19
2023-04-20T05:33:29.123Z,1017.22
2023-04-20T05:34:28.234Z,1017.26
2023-04-20T05:35:28.301Z,1017.25
2023-04-20T05:36:29.703Z,1017.24
2023-04-20T05:37:28.734Z,1017.32
2023-04-20T05:38:28.232Z,1017.27
2023-04-20T05:39:28.177Z,1017.26
2023-04-20T05:40:28.186Z,1017.26
2023-04-20T05:41:28.183Z,1017.21
2023-04-20T05:42:28.183Z,1017.27
2023-04-20T05:43:28.207Z,1017.23
2023-04-20T05:44:28.162Z,1017.26
2023-04-20T05:45:28.134Z,1017.26
2023-04-20T05:46:28.096Z,1017.24
2023-04-20T05:47:28.089Z,1017.28
2023-04-20T05:48:29.990Z,1017.25
2023-04-20T05:49:28.053Z,1017.28
2023-04-20T05:50:28.036Z,1017.26
2023-04-20T05:51:28.348Z,1017.33
2023-04-20T05:52:28.002Z,1017.28
2023-04-20T05:53:28.048Z,1017.27
2023-04-20T05:54:28.049Z,1017.24
2023-04-20T05:55:28.007Z,1017.32
2023-04-20T05:56:27.950Z,1017.29
2023-04-20T05:57:27.925Z,1017.27
2023-04-20T05:58:27.982Z,1017.29
2023-04-20T05:59:27.906Z,1017.35
2023-04-20T06:00:27.940Z,1017.25
2023-04-20T06:01:27.923Z,1017.23
2023-04-20T06:02:27.970Z,1017.22
2023-04-20T06:03:28.066Z,1017.25
2023-04-20T06:04:28.210Z,1017.26
2023-04-20T06:05:27.906Z,1017.23
2023-04-20T06:06:27.854Z,1017.20
2023-04-20T06:07:27.809Z,1017.23
2023-04-20T06:08:27.912Z,1017.19
2023-04-20T06:09:27.808Z,1017.28
2023-04-20T06:10:27.808Z,1017.25
2023-04-20T06:11:27.763Z,1017.22
2023-04-20T06:12:27.798Z,1017.27
2023-04-20T06:13:27.747Z,1017.25
2023-04-20T06:14:27.745Z,1017.23
2023-04-20T06:15:27.785Z,1017.24
2023-04-20T06:16:27.825Z,1017.26
2023-04-20T06:17:27.699Z,1017.25
2023-04-20T06:18:27.677Z,1017.29
2023-04-20T06:19:27.793Z,1017.28
2023-04-20T06:20:27.677Z,1017.28
2023-04-20T06:21:27.693Z,1017.29
2023-04-20T06:22:27.642Z,1017.29
2023-04-20T06:23:27.604Z,1017.21
2023-04-20T06:24:27.592Z,1017.28
2023-04-20T06:25:27.668Z,1017.34
2023-04-20T06:26:27.576Z,1017.30
2023-04-20T06:27:27.581Z,1017.26
2023-04-20T06:28:27.584Z,1017.30
2023-04-20T06:29:27.545Z,1017.26
2023-04-20T06:30:27.551Z,1017.27
2023-04-20T06:31:27.565Z,1017.27
2023-04-20T06:32:27.533Z,1017.22
2023-04-20T06:33:27.499Z,1017.29
2023-04-20T06:34:27.477Z,1017.32
2023-04-20T06:35:27.700Z,1017.26
2023-04-20T06:36:27.492Z,1017.30
2023-04-20T06:37:27.528Z,1017.24
2023-04-20T06:38:27.443Z,1017.25
2023-04-20T06:39:27.408Z,1017.27
2023-04-20T06:40:27.438Z,1017.29
2023-04-20T06:41:27.517Z,1017.30
2023-04-20T06:42:27.479Z,1017.32
2023-04-20T06:43:27.357Z,1017.32
2023-04-20T06:44:27.359Z,1017.34
2023-04-20T06:45:27.349Z,1017.34
2023-04-20T06:46:27.389Z,1017.32
2023-04-20T06:47:27.509Z,1017.38
2023-04-20T06:49:37.662Z,1017.42
2023-04-20T06:50:37.633Z,1017.41
2023-04-20T06:51:37.579Z,1017.42
2023-04-20T06:52:37.607Z,1017.45
2023-04-20T06:53:37.561Z,1017.47
2023-04-20T06:54:37.550Z,1017.43
2023-04-20T06:55:37.555Z,1017.42
2023-04-20T06:56:37.542Z,1017.46
2023-04-20T06:57:37.540Z,1017.38
2023-04-20T06:58:37.527Z,1017.40
2023-04-20T06:59:38.583Z,1017.40
2023-04-20T07:00:37.468Z,1017.39
2023-04-20T07:01:37.503Z,1017.39
2023-04-20T07:02:37.511Z,1017.40
2023-04-20T07:03:37.584Z,1017.44
2023-04-20T07:04:37.502Z,1017.49
2023-04-20T07:05:37.411Z,1017.33
2023-04-20T07:06:58.705Z,1017.38
2023-04-20T07:07:37.416Z,1017.35
2023-04-20T07:08:37.377Z,1017.33
2023-04-20T07:09:37.362Z,1017.35
2023-04-20T07:10:37.348Z,1017.36
2023-04-20T07:11:37.334Z,1017.31
2023-04-20T07:12:37.344Z,1017.37
2023-04-20T07:13:37.324Z,1017.31
2023-04-20T07:14:37.297Z,1017.39
2023-04-20T07:15:37.289Z,1017.32
2023-04-20T07:16:37.439Z,1017.36
2023-04-20T07:17:37.322Z,1017.35
2023-04-20T07:18:37.232Z,1017.35
2023-04-20T07:19:37.232Z,1017.43
2023-04-20T07:20:37.274Z,1017.39
2023-04-20T07:21:37.283Z,1017.36
2023-04-20T07:22:37.224Z,1017.40
2023-04-20T07:23:37.221Z,1017.38
2023-04-20T07:24:37.177Z,1017.40
2023-04-20T07:25:37.165Z,1017.36
2023-04-20T07:26:37.196Z,1017.31
2023-04-20T07:27:37.203Z,1017.32
2023-04-20T07:28:37.182Z,1017.30
2023-04-20T07:29:37.192Z,1017.32
2023-04-20T07:30:37.122Z,1017.29
2023-04-20T07:31:37.144Z,1017.23
2023-04-20T07:32:37.096Z,1017.25
2023-04-20T07:33:37.099Z,1017.33
2023-04-20T07:34:37.061Z,1017.33
2023-04-20T07:35:37.068Z,1017.32
2023-04-20T07:36:37.057Z,1017.34
2023-04-20T07:37:37.042Z,1017.35
2023-04-20T07:38:37.044Z,1017.36
2023-04-20T07:39:37.031Z,1017.31
2023-04-20T07:40:37.005Z,1017.36
2023-04-20T07:41:37.002Z,1017.33
2023-04-20T07:42:37.180Z,1017.29
2023-04-20T07:43:36.969Z,1017.29
2023-04-20T07:44:36.997Z,1017.30
2023-04-20T07:45:36.945Z,1017.31
2023-04-20T07:46:36.942Z,1017.31
2023-04-20T07:47:36.982Z,1017.32
2023-04-20T07:48:37.008Z,1017.22
2023-04-20T07:49:36.917Z,1017.22
2023-04-20T07:50:36.907Z,1017.23
2023-04-20T07:51:36.963Z,1017.24
2023-04-20T07:52:37.254Z,1017.17
2023-04-20T07:53:36.930Z,1017.21
2023-04-20T07:54:36.923Z,1017.22
2023-04-20T07:55:36.889Z,1017.16
2023-04-20T07:56:36.897Z,1017.17
2023-04-20T07:57:36.885Z,1017.15
2023-04-20T07:58:36.865Z,1017.14
2023-04-20T07:59:36.787Z,1017.18
2023-04-20T08:00:36.736Z,1017.10
2023-04-20T08:01:36.804Z,1017.11
2023-04-20T08:02:36.969Z,1017.07
2023-04-20T08:03:36.944Z,1017.08
2023-04-20T08:04:37.092Z,1017.08
2023-04-20T08:05:36.731Z,1017.07
2023-04-20T08:06:36.728Z,1017.09
2023-04-20T08:07:36.694Z,1017.06
2023-04-20T08:08:36.703Z,1017.05
2023-04-20T08:09:36.615Z,1017.09
2023-04-20T08:10:36.649Z,1017.10
2023-04-20T08:11:36.637Z,1017.12
2023-04-20T08:12:36.736Z,1017.05
2023-04-20T08:13:36.634Z,1017.04
2023-04-20T08:14:37.264Z,1017.05
2023-04-20T08:15:36.729Z,1016.98
2023-04-20T08:16:36.622Z,1016.99
2023-04-20T08:17:36.610Z,1016.96
2023-04-20T08:18:36.552Z,1016.95
2023-04-20T08:19:36.490Z,1017.01
2023-04-20T08:20:36.634Z,1016.94
2023-04-20T08:21:36.570Z,1016.95
2023-04-20T08:22:36.445Z,1016.96
2023-04-20T08:23:36.506Z,1016.99
2023-04-20T08:24:36.501Z,1017.02
2023-04-20T08:25:36.439Z,1016.95
2023-04-20T08:26:36.468Z,1016.94
2023-04-20T08:27:36.551Z,1016.92
2023-04-20T08:28:36.409Z,1016.90
2023-04-20T08:29:36.381Z,1016.92
2023-04-20T08:30:36.374Z,1016.92
2023-04-20T08:31:36.419Z,1016.91
2023-04-20T08:32:36.360Z,1016.86
2023-04-20T08:33:36.322Z,1016.88
2023-04-20T08:34:36.534Z,1016.90
2023-04-20T08:35:36.320Z,1016.84
2023-04-20T08:36:36.309Z,1016.84
2023-04-20T08:37:36.280Z,1016.89
2023-04-20T08:38:36.466Z,1016.88
2023-04-20T08:39:36.331Z,1016.92
2023-04-20T08:40:36.268Z,1016.85
2023-04-20T08:41:36.285Z,1016.85
2023-04-20T08:42:36.304Z,1016.92
2023-04-20T08:43:36.183Z,1016.98
2023-04-20T08:44:36.297Z,1016.91
2023-04-20T08:45:36.175Z,1016.94
2023-04-20T08:46:36.350Z,1016.93
2023-04-20T08:47:36.170Z,1016.87
2023-04-20T08:48:36.179Z,1016.87
2023-04-20T08:49:36.175Z,1016.87
2023-04-20T08:50:36.083Z,1016.88
2023-04-20T08:51:36.099Z,1016.85
2023-04-20T08:52:36.080Z,1016.82
2023-04-20T08:53:36.049Z,1016.89
2023-04-20T08:54:37.237Z,1016.89
2023-04-20T08:55:36.040Z,1016.86
2023-04-20T08:56:36.055Z,1016.85
2023-04-20T08:57:36.028Z,1016.90
2023-04-20T08:58:35.972Z,1016.89
2023-04-20T08:59:35.954Z,1016.88
2023-04-20T09:00:36.037Z,1016.76
2023-04-20T09:01:36.424Z,1016.81
2023-04-20T09:02:36.040Z,1016.82
2023-04-20T09:03:36.091Z,1016.86
2023-04-20T09:04:35.969Z,1016.83
2023-04-20T09:05:35.962Z,1016.78
2023-04-20T09:06:35.852Z,1016.78
2023-04-20T09:07:35.852Z,1016.82
2023-04-20T09:08:36.050Z,1016.85
2023-04-20T09:09:35.848Z,1016.83
2023-04-20T09:10:35.857Z,1016.78
2023-04-20T09:11:35.799Z,1016.81
2023-04-20T09:12:35.798Z,1016.85
2023-04-20T09:13:35.766Z,1016.85
2023-04-20T09:14:35.854Z,1016.78
2023-04-20T09:15:44.517Z,1016.81
2023-04-20T09:16:43.655Z,1016.78
2023-04-20T09:17:35.808Z,1016.75
2023-04-20T09:18:35.725Z,1016.73
2023-04-20T09:19:35.707Z,1016.73
2023-04-20T09:20:35.755Z,1016.76
2023-04-20T09:21:35.724Z,1016.74
2023-04-20T09:22:35.800Z,1016.71
2023-04-20T09:23:35.766Z,1016.70
2023-04-20T09:24:35.681Z,1016.70
2023-04-20T09:25:35.636Z,1016.72
2023-04-20T09:26:35.710Z,1016.74
2023-04-20T09:27:35.582Z,1016.77
2023-04-20T09:28:35.616Z,1016.82
2023-04-20T09:29:35.685Z,1016.99
2023-04-20T09:30:35.588Z,1016.86
2023-04-20T09:31:35.595Z,1016.88
2023-04-20T09:32:35.582Z,1016.93
2023-04-20T09:33:35.516Z,1016.96
2023-04-20T09:34:35.508Z,1016.97
2023-04-20T09:35:35.563Z,1017.04
2023-04-20T09:36:35.713Z,1017.02
2023-04-20T09:37:35.481Z,1017.05
2023-04-20T09:38:35.535Z,1017.00
2023-04-20T09:39:35.498Z,1017.02
2023-04-20T09:40:35.463Z,1017.00
2023-04-20T09:41:35.440Z,1017.01
2023-04-20T09:42:46.718Z,1017.00
2023-04-20T09:43:35.759Z,1017.01
2023-04-20T09:44:36.494Z,1017.03
2023-04-20T09:45:35.394Z,1017.01
2023-04-20T09:46:35.480Z,1016.92
2023-04-20T09:47:35.366Z,1016.82
2023-04-20T09:48:35.326Z,1016.86
2023-04-20T09:49:35.329Z,1016.89
2023-04-20T09:50:48.117Z,1016.89
2023-04-20T09:51:36.331Z,1016.86
2023-04-20T09:52:35.308Z,1016.85
2023-04-20T09:53:35.279Z,1016.89
2023-04-20T09:54:35.293Z,1016.84
2023-04-20T09:55:35.273Z,1016.83
2023-04-20T09:56:35.291Z,1016.82
2023-04-20T09:57:35.263Z,1016.80
2023-04-20T09:58:35.232Z,1016.86
2023-04-20T09:59:35.242Z,1016.83
2023-04-20T10:00:35.192Z,1016.78
2023-04-20T10:01:35.280Z,1016.72
2023-04-20T10:02:35.331Z,1016.75
2023-04-20T10:03:35.387Z,1016.72
2023-04-20T10:04:35.251Z,1016.75
2023-04-20T10:05:35.166Z,1016.71
2023-04-20T10:06:35.292Z,1016.70
2023-04-20T10:07:35.092Z,1016.72
2023-04-20T10:08:35.106Z,1016.62
2023-04-20T10:09:35.062Z,1016.61
2023-04-20T10:10:35.099Z,1016.61
2023-04-20T10:11:45.214Z,1016.60
2023-04-20T10:12:36.023Z,1016.71
2023-04-20T10:13:35.016Z,1016.62
2023-04-20T10:14:34.992Z,1016.59
2023-04-20T10:15:34.998Z,1016.57
2023-04-20T10:16:35.057Z,1016.56
2023-04-20T10:17:35.120Z,1016.52
2023-04-20T10:18:35.107Z,1016.52
2023-04-20T10:19:34.920Z,1016.43
2023-04-20T10:20:34.915Z,1016.43
2023-04-20T10:21:34.934Z,1016.44
2023-04-20T10:22:34.919Z,1016.48
2023-04-20T10:23:34.924Z,1016.46
2023-04-20T10:24:34.849Z,1016.43
2023-04-20T10:25:34.851Z,1016.52
2023-04-20T10:26:34.838Z,1016.44
2023-04-20T10:27:34.843Z,1016.49
2023-04-20T10:28:34.797Z,1016.48
2023-04-20T10:29:36.352Z,1016.37
2023-04-20T10:30:34.781Z,1016.43
2023-04-20T10:31:34.846Z,1016.51
2023-04-20T10:32:34.817Z,1016.43
2023-04-20T10:33:34.758Z,1016.35
2023-04-20T10:34:34.740Z,1016.38
2023-04-20T10:35:34.775Z,1016.37
2023-04-20T10:36:34.729Z,1016.41
2023-04-20T10:37:34.688Z,1016.40
2023-04-20T10:38:34.665Z,1016.43
2023-04-20T10:39:34.734Z,1016.40
2023-04-20T10:40:34.641Z,1016.39
2023-04-20T10:41:34.651Z,1016.37
2023-04-20T10:42:34.614Z,1016.39
2023-04-20T10:43:34.628Z,1016.44
2023-04-20T10:44:34.605Z,1016.40
2023-04-20T10:45:34.572Z,1016.42
2023-04-20T10:46:34.642Z,1016.37
2023-04-20T10:47:34.577Z,1016.39
2023-04-20T10:48:34.533Z,1016.34
2023-04-20T10:49:34.538Z,1016.29
2023-04-20T10:50:34.507Z,1016.36
2023-04-20T10:51:34.464Z,1016.26
2023-04-20T10:52:34.487Z,1016.29
2023-04-20T10:53:34.500Z,1016.35
2023-04-20T10:54:34.445Z,1016.22
2023-04-20T10:55:34.408Z,1016.32
2023-04-20T10:56:34.450Z,1016.24
2023-04-20T10:57:34.591Z,1016.30
2023-04-20T10:58:34.392Z,1016.19
2023-04-20T10:59:34.384Z,1016.22
2023-04-20T11:00:34.347Z,1016.20
2023-04-20T11:01:34.447Z,1016.27
2023-04-20T11:02:34.439Z,1016.13
2023-04-20T11:03:34.658Z,1016.11
2023-04-20T11:04:34.351Z,1016.12
2023-04-20T11:05:34.277Z,1016.12
2023-04-20T11:06:34.243Z,1016.12
2023-04-20T11:07:34.261Z,1016.14
2023-04-20T11:08:34.248Z,1016.12
2023-04-20T11:09:34.230Z,1016.07
2023-04-20T11:10:34.214Z,1016.08
2023-04-20T11:11:34.193Z,1016.03
2023-04-20T11:12:34.172Z,1016.06
2023-04-20T11:13:34.174Z,1016.07
2023-04-20T11:14:34.167Z,1016.03
2023-04-20T11:15:34.240Z,1016.00
2023-04-20T11:16:48.018Z,1016.06
2023-04-20T11:17:35.112Z,1016.09
2023-04-20T11:18:34.088Z,1016.12
2023-04-20T11:19:34.096Z,1016.03
2023-04-20T11:20:34.061Z,1016.07
2023-04-20T11:21:34.033Z,1016.08
2023-04-20T11:22:34.023Z,1016.08
2023-04-20T11:23:34.013Z,1016.02
2023-04-20T11:24:34.279Z,1016.00
2023-04-20T11:25:33.991Z,1015.96
2023-04-20T11:26:33.942Z,1015.93
2023-04-20T11:27:33.984Z,1015.97
2023-04-20T11:28:33.933Z,1015.94
2023-04-20T11:29:33.936Z,1015.90
2023-04-20T11:30:33.965Z,1015.94
2023-04-20T11:31:33.981Z,1015.96
2023-04-20T11:32:34.164Z,1015.93
2023-04-20T11:33:33.870Z,1015.95
2023-04-20T11:34:33.859Z,1015.93
2023-04-20T11:35:33.856Z,1015.91
2023-04-20T11:36:33.828Z,1015.94
2023-04-20T11:37:33.815Z,1015.85
2023-04-20T11:38:33.775Z,1015.88
2023-04-20T11:39:33.764Z,1015.80
2023-04-20T11:40:33.812Z,1015.80
2023-04-20T11:41:33.749Z,1015.84
2023-04-20T11:42:33.753Z,1015.79
2023-04-20T11:43:33.689Z,1015.89
2023-04-20T11:44:33.686Z,1015.84
2023-04-20T11:45:35.734Z,1015.78
2023-04-20T11:46:34.580Z,1015.77
2023-04-20T11:47:33.685Z,1015.79
2023-04-20T11:48:33.687Z,1015.81
2023-04-20T11:49:33.632Z,1015.79
2023-04-20T11:50:33.607Z,1015.83
2023-04-20T11:51:33.642Z,1015.83
2023-04-20T11:52:33.587Z,1015.80
2023-04-20T11:53:33.584Z,1015.79
2023-04-20T11:54:33.557Z,1015.81
2023-04-20T11:55:33.655Z,1015.73
2023-04-20T11:56:33.554Z,1015.66
2023-04-20T11:57:33.549Z,1015.70
2023-04-20T11:58:33.506Z,1015.71
2023-04-20T11:59:33.536Z,1015.81
2023-04-20T12:00:33.517Z,1015.82
2023-04-20T12:01:33.491Z,1015.88
2023-04-20T12:02:33.592Z,1015.81
2023-04-20T12:03:33.678Z,1015.87
2023-04-20T12:04:33.677Z,1015.77
2023-04-20T12:05:33.516Z,1015.72
2023-04-20T12:06:33.379Z,1015.73